createdAt,value
2022-08-14T00:00:55.971Z,63.46
2022-08-14T00:04:01.643Z,64.28
2022-08-14T00:07:25.934Z,64.92
2022-08-14T00:10:49.864Z,64.77
2022-08-14T00:13:58.079Z,65.44
2022-08-14T00:17:02.038Z,65.41
2022-08-14T00:20:11.431Z,65.72
2022-08-14T00:23:17.855Z,65.00
2022-08-14T00:26:23.354Z,66.16
2022-08-14T00:29:27.383Z,64.92
2022-08-14T00:32:52.483Z,64.70
2022-08-14T00:36:36.112Z,64.82
2022-08-14T00:39:21.363Z,64.08
2022-08-14T00:42:55.966Z,63.92
2022-08-14T00:45:52.533Z,64.06
2022-08-14T00:48:58.076Z,63.70
2022-08-14T00:52:05.690Z,65.02
2022-08-14T00:55:13.891Z,64.11
2022-08-14T00:58:33.750Z,63.81
2022-08-14T01:01:38.027Z,63.88
2022-08-14T01:04:53.777Z,63.96
2022-08-14T01:08:00.928Z,64.12
2022-08-14T01:11:09.638Z,63.40
2022-08-14T01:14:25.191Z,63.17
2022-08-14T01:17:49.641Z,63.06
2022-08-14T01:21:06.437Z,62.83
2022-08-14T01:24:15.201Z,62.37
2022-08-14T01:27:29.017Z,63.20
2022-08-14T01:30:40.063Z,62.46
2022-08-14T01:35:15.795Z,62.11
2022-08-14T01:37:12.496Z,62.69
2022-08-14T01:40:25.635Z,63.11
2022-08-14T01:43:56.626Z,64.01
2022-08-14T01:47:05.854Z,64.14
2022-08-14T01:50:11.808Z,64.00
2022-08-14T01:53:18.404Z,63.77
2022-08-14T01:56:30.913Z,63.36
2022-08-14T01:59:44.303Z,63.68
2022-08-14T02:02:48.912Z,64.04
2022-08-14T02:05:58.515Z,65.23
2022-08-14T02:09:04.330Z,64.23
2022-08-14T02:12:26.561Z,64.36
2022-08-14T02:15:33.936Z,66.26
2022-08-14T02:18:37.719Z,65.02
2022-08-14T02:21:48.871Z,64.79
2022-08-14T02:24:54.273Z,64.15
2022-08-14T02:28:23.643Z,63.96
2022-08-14T02:31:36.381Z,63.69
2022-08-14T02:34:47.775Z,63.68
2022-08-14T02:37:51.599Z,63.92
2022-08-14T02:40:56.041Z,64.42
2022-08-14T02:44:01.580Z,64.87
2022-08-14T02:47:14.756Z,64.14
2022-08-14T02:50:21.427Z,64.22
2022-08-14T02:53:33.471Z,64.15
2022-08-14T02:57:16.229Z,64.44
2022-08-14T03:00:10.569Z,65.22
2022-08-14T03:03:16.734Z,65.41
2022-08-14T03:06:35.083Z,65.22
2022-08-14T03:10:26.731Z,67.39
2022-08-14T03:13:21.187Z,67.69
2022-08-14T03:16:36.349Z,66.42
2022-08-14T03:19:42.891Z,67.73
2022-08-14T03:22:47.093Z,68.30
2022-08-14T03:25:56.273Z,68.47
2022-08-14T03:29:01.645Z,66.66
2022-08-14T03:32:09.384Z,66.07
2022-08-14T03:35:14.995Z,65.66
2022-08-14T03:39:11.854Z,65.18
2022-08-14T03:41:46.875Z,65.47
2022-08-14T03:45:26.540Z,64.79
2022-08-14T03:48:27.464Z,64.85
2022-08-14T03:51:37.890Z,65.44
2022-08-14T03:54:44.846Z,65.47
2022-08-14T03:57:49.429Z,65.05
2022-08-14T04:01:03.030Z,64.37
2022-08-14T04:04:09.973Z,64.25
2022-08-14T04:07:14.528Z,63.69
2022-08-14T04:10:26.438Z,63.57
2022-08-14T04:13:41.490Z,63.70
2022-08-14T04:16:46.517Z,64.23
2022-08-14T04:19:53.062Z,64.75
2022-08-14T04:22:57.114Z,64.93
2022-08-14T04:26:00.647Z,66.43
2022-08-14T04:29:14.715Z,65.73
2022-08-14T04:33:02.925Z,65.45
2022-08-14T04:35:56.137Z,65.75
2022-08-14T04:39:18.059Z,65.75
2022-08-14T04:42:39.390Z,66.97
2022-08-14T04:45:52.199Z,67.48
2022-08-14T04:48:59.841Z,66.64
2022-08-14T04:52:15.572Z,66.17
2022-08-14T04:55:28.010Z,65.94
2022-08-14T04:58:37.201Z,65.30
2022-08-14T05:01:48.749Z,65.50
2022-08-14T05:04:57.348Z,65.49
2022-08-14T05:08:32.314Z,66.51
2022-08-14T05:11:37.656Z,66.02
2022-08-14T05:14:46.354Z,67.24
2022-08-14T05:18:03.865Z,67.01
2022-08-14T05:21:57.964Z,66.93
2022-08-14T05:24:51.527Z,68.09
2022-08-14T05:28:00.774Z,67.22
2022-08-14T05:31:12.390Z,67.36
2022-08-14T05:34:16.910Z,66.58
2022-08-14T05:37:23.981Z,66.41
2022-08-14T05:40:29.415Z,66.59
2022-08-14T05:43:41.519Z,66.59
2022-08-14T05:46:46.568Z,68.67
2022-08-14T05:49:50.498Z,67.78
2022-08-14T05:52:56.354Z,67.26
2022-08-14T05:56:02.926Z,67.76
2022-08-14T05:59:07.577Z,67.78
2022-08-14T06:02:12.212Z,68.12
2022-08-14T06:05:18.507Z,68.39
2022-08-14T06:08:35.681Z,67.28
2022-08-14T06:11:49.914Z,67.42
2022-08-14T06:14:53.676Z,67.79
2022-08-14T06:18:00.210Z,67.83
2022-08-14T06:21:05.022Z,68.90
2022-08-14T06:24:18.283Z,68.64
2022-08-14T06:27:26.101Z,68.64
2022-08-14T06:30:46.982Z,68.82
2022-08-14T06:35:03.399Z,70.44
2022-08-14T06:37:19.027Z,70.63
2022-08-14T06:40:27.941Z,70.35
2022-08-14T06:43:34.221Z,70.03
2022-08-14T06:46:38.868Z,68.58
2022-08-14T06:49:55.997Z,69.61
2022-08-14T06:53:02.626Z,69.29
2022-08-14T06:56:07.311Z,68.62
2022-08-14T06:59:19.736Z,68.13
2022-08-14T07:02:45.297Z,68.35
2022-08-14T07:05:55.342Z,68.37
2022-08-14T07:09:02.950Z,67.82
2022-08-14T07:12:07.929Z,68.46
2022-08-14T07:15:13.736Z,68.32
2022-08-14T07:18:21.121Z,68.39
2022-08-14T07:21:25.585Z,67.98
2022-08-14T07:24:31.300Z,68.22
2022-08-14T07:27:43.255Z,67.75
2022-08-14T07:30:51.924Z,68.62
2022-08-14T07:34:02.020Z,68.28
2022-08-14T07:37:07.746Z,67.66
2022-08-14T07:40:14.567Z,67.65
2022-08-14T07:43:27.998Z,68.33
2022-08-14T07:46:36.141Z,69.29
2022-08-14T07:49:43.689Z,70.08
2022-08-14T07:52:49.312Z,68.46
2022-08-14T07:56:00.241Z,67.91
2022-08-14T07:59:14.587Z,68.39
2022-08-14T08:02:21.918Z,67.20
2022-08-14T08:05:28.187Z,69.28
2022-08-14T08:08:32.630Z,68.46
2022-08-14T08:11:37.836Z,68.44
2022-08-14T08:14:56.317Z,67.82
2022-08-14T08:18:27.325Z,66.85
2022-08-14T08:21:33.389Z,67.27
2022-08-14T08:24:40.078Z,68.66
2022-08-14T08:27:45.083Z,69.33
2022-08-14T08:30:51.724Z,69.76
2022-08-14T08:33:58.396Z,68.14
2022-08-14T08:37:07.239Z,67.43
2022-08-14T08:40:20.852Z,68.11
2022-08-14T08:43:27.910Z,67.81
2022-08-14T08:46:32.014Z,67.46
2022-08-14T08:49:52.590Z,67.07
2022-08-14T08:53:04.688Z,67.47
2022-08-14T08:56:10.133Z,67.25
2022-08-14T08:59:30.769Z,66.72
2022-08-14T09:02:36.399Z,66.01
2022-08-14T09:05:53.985Z,67.05
2022-08-14T09:08:58.342Z,66.79
2022-08-14T09:12:07.414Z,66.75
2022-08-14T09:15:19.794Z,65.62
2022-08-14T09:18:28.715Z,66.20
2022-08-14T09:21:49.271Z,65.73
2022-08-14T09:25:58.605Z,67.81
2022-08-14T09:28:51.035Z,68.63
2022-08-14T09:31:58.271Z,67.75
2022-08-14T09:35:14.415Z,68.82
2022-08-14T09:38:29.683Z,68.42
2022-08-14T09:42:21.139Z,68.60
2022-08-14T09:45:16.810Z,69.47
2022-08-14T09:48:27.478Z,68.48
2022-08-14T09:51:44.939Z,68.41
2022-08-14T09:54:56.999Z,67.79
2022-08-14T09:58:15.056Z,67.29
2022-08-14T10:01:26.798Z,66.89
2022-08-14T10:04:37.709Z,66.61
2022-08-14T10:07:50.678Z,66.42
2022-08-14T10:11:02.768Z,64.81
2022-08-14T10:14:21.116Z,65.15
2022-08-14T10:17:38.829Z,65.75
2022-08-14T10:20:49.798Z,65.87
2022-08-14T10:23:54.146Z,66.56
2022-08-14T10:27:02.180Z,65.75
2022-08-14T10:30:22.732Z,64.54
2022-08-14T10:33:30.996Z,64.91
2022-08-14T10:36:40.969Z,65.28
2022-08-14T10:40:05.244Z,65.12
2022-08-14T10:43:23.185Z,65.40
2022-08-14T10:47:40.511Z,66.06
2022-08-14T10:50:02.291Z,66.22
2022-08-14T10:53:07.971Z,65.86
2022-08-14T10:56:21.831Z,65.64
2022-08-14T10:59:46.299Z,65.21
2022-08-14T11:03:01.602Z,65.32
2022-08-14T11:06:20.339Z,64.70
2022-08-14T11:09:25.949Z,64.27
2022-08-14T11:12:46.694Z,64.95
2022-08-14T11:15:53.354Z,64.50
2022-08-14T11:18:59.652Z,64.91
2022-08-14T11:22:06.419Z,64.69
2022-08-14T11:25:14.502Z,64.19
2022-08-14T11:28:46.170Z,63.85
2022-08-14T11:31:51.876Z,63.39
2022-08-14T11:34:57.839Z,64.32
2022-08-14T11:38:05.301Z,64.08
2022-08-14T11:41:09.625Z,64.13
2022-08-14T11:44:17.820Z,64.03
2022-08-14T11:48:11.169Z,63.70
2022-08-14T11:51:14.892Z,63.76
2022-08-14T11:54:33.698Z,63.98
2022-08-14T11:57:39.607Z,63.74
2022-08-14T12:00:53.962Z,64.04
2022-08-14T12:04:32.051Z,62.48
2022-08-14T12:07:33.969Z,63.47
2022-08-14T12:10:41.178Z,64.16
2022-08-14T12:13:56.082Z,64.51
2022-08-14T12:17:02.002Z,63.95
2022-08-14T12:20:09.367Z,65.34
2022-08-14T12:23:22.512Z,64.33
2022-08-14T12:26:39.995Z,64.00
2022-08-14T12:29:54.598Z,62.53
2022-08-14T12:32:58.899Z,62.45
2022-08-14T12:36:10.543Z,61.53
2022-08-14T12:39:22.788Z,61.26
2022-08-14T12:42:43.035Z,60.51
2022-08-14T12:45:57.473Z,60.71
2022-08-14T12:49:06.544Z,61.02
2022-08-14T12:52:17.314Z,60.97
2022-08-14T12:55:22.891Z,61.51
2022-08-14T12:58:51.946Z,60.36
2022-08-14T13:02:03.134Z,60.29
2022-08-14T13:05:13.837Z,60.30
2022-08-14T13:08:34.155Z,60.57
2022-08-14T13:11:41.375Z,59.91
2022-08-14T13:14:53.231Z,58.95
2022-08-14T13:17:58.154Z,59.18
2022-08-14T13:21:05.966Z,57.95
2022-08-14T13:24:13.260Z,58.05
2022-08-14T13:27:20.721Z,59.33
2022-08-14T13:30:26.786Z,59.38
2022-08-14T13:33:33.157Z,59.23
2022-08-14T13:36:54.500Z,59.88
2022-08-14T13:40:09.039Z,58.59
2022-08-14T13:43:16.374Z,58.84
2022-08-14T13:46:21.890Z,58.09
2022-08-14T13:49:30.559Z,57.97
2022-08-14T13:52:51.529Z,58.21
2022-08-14T13:56:05.813Z,58.10
2022-08-14T13:59:20.465Z,58.05
2022-08-14T14:02:41.760Z,58.18
2022-08-14T14:05:54.300Z,57.75
2022-08-14T14:08:59.474Z,57.45
2022-08-14T14:12:38.321Z,57.96
2022-08-14T14:15:58.559Z,57.49
2022-08-14T14:19:10.521Z,57.35
2022-08-14T14:23:01.282Z,57.55
2022-08-14T14:25:48.111Z,57.41
2022-08-14T14:28:58.593Z,57.47
2022-08-14T14:32:04.383Z,57.58
2022-08-14T14:35:13.664Z,57.35
2022-08-14T14:38:19.626Z,57.65
2022-08-14T14:41:37.970Z,57.98
2022-08-14T14:48:31.569Z,56.28
2022-08-14T14:51:41.724Z,56.57
2022-08-14T14:54:50.362Z,56.34
2022-08-14T14:57:57.065Z,56.69
2022-08-14T15:01:08.497Z,56.19
2022-08-14T15:04:20.217Z,55.97
2022-08-14T15:07:25.578Z,55.75
2022-08-14T15:10:37.894Z,55.06
2022-08-14T15:13:53.230Z,55.46
2022-08-14T15:16:59.205Z,55.03
2022-08-14T15:20:09.218Z,55.67
2022-08-14T15:24:07.704Z,55.98
2022-08-14T15:27:13.682Z,55.49
2022-08-14T15:30:32.171Z,54.88
2022-08-14T15:34:00.897Z,54.97
2022-08-14T15:37:19.168Z,55.44
2022-08-14T15:40:23.725Z,55.79
2022-08-14T15:43:31.260Z,55.82
2022-08-14T15:46:41.455Z,55.37
2022-08-14T15:49:53.766Z,55.62
2022-08-14T15:53:00.778Z,54.70
2022-08-14T15:56:06.270Z,55.06
2022-08-14T15:59:17.899Z,55.52
2022-08-14T16:02:24.633Z,54.87
2022-08-14T16:05:38.211Z,55.28
2022-08-14T16:08:44.314Z,54.82
2022-08-14T16:11:53.573Z,54.60
2022-08-14T16:14:57.711Z,54.39
2022-08-14T16:18:04.004Z,54.11
2022-08-14T16:21:12.033Z,53.94
2022-08-14T16:27:43.328Z,55.00
2022-08-14T16:30:48.347Z,55.00
2022-08-14T16:34:00.180Z,54.46
2022-08-14T16:37:09.407Z,54.55
2022-08-14T16:40:15.920Z,54.04
2022-08-14T16:43:26.017Z,54.29
2022-08-14T16:46:34.813Z,54.16
2022-08-14T16:50:03.293Z,54.49
2022-08-14T16:53:07.369Z,54.50
2022-08-14T16:56:17.287Z,54.30
2022-08-14T16:59:30.537Z,54.54
2022-08-14T17:03:01.631Z,54.71
2022-08-14T17:06:10.876Z,54.68
2022-08-14T17:09:34.706Z,55.17
2022-08-14T17:12:38.414Z,56.71
2022-08-14T17:15:45.487Z,57.72
2022-08-14T17:19:00.341Z,57.76
2022-08-14T17:22:05.400Z,57.85
2022-08-14T17:25:11.062Z,58.36
2022-08-14T17:28:52.038Z,58.30
2022-08-14T17:31:59.108Z,58.65
2022-08-14T17:35:10.130Z,60.33
2022-08-14T17:38:39.217Z,60.12
2022-08-14T17:41:43.735Z,60.13
2022-08-14T17:44:48.262Z,60.05
2022-08-14T17:47:52.771Z,60.36
2022-08-14T17:50:59.976Z,60.51
2022-08-14T17:54:08.503Z,60.69
2022-08-14T17:57:17.665Z,60.52
2022-08-14T18:00:22.559Z,60.77
2022-08-14T18:03:50.119Z,60.83
2022-08-14T18:06:58.894Z,62.19
2022-08-14T18:10:51.927Z,62.56
2022-08-14T18:13:51.770Z,62.50
2022-08-14T18:16:57.414Z,62.37
2022-08-14T18:20:02.296Z,62.33
2022-08-14T18:23:26.013Z,62.12
2022-08-14T18:26:36.316Z,62.34
2022-08-14T18:29:54.729Z,62.60
2022-08-14T18:33:15.704Z,62.31
2022-08-14T18:36:48.606Z,62.11
2022-08-14T18:40:15.437Z,62.87
2022-08-14T18:51:09.564Z,65.40
2022-08-14T18:54:32.773Z,65.36
2022-08-14T19:01:33.181Z,64.68
2022-08-14T19:04:41.771Z,65.71
2022-08-14T19:07:48.141Z,65.96
2022-08-14T19:10:59.186Z,65.84
2022-08-14T19:14:05.481Z,65.59
2022-08-14T19:18:14.764Z,65.86
2022-08-14T19:21:26.303Z,66.30
2022-08-14T19:24:51.139Z,66.31
2022-08-14T19:28:31.221Z,66.10
2022-08-14T19:31:42.449Z,66.90
2022-08-14T19:34:59.881Z,66.68
2022-08-14T19:38:08.275Z,66.45
2022-08-14T19:41:34.867Z,66.25
2022-08-14T19:44:40.390Z,66.12
2022-08-14T19:47:44.503Z,67.48
2022-08-14T19:51:04.661Z,67.50
2022-08-14T19:54:15.511Z,66.83
2022-08-14T19:57:39.901Z,67.08
2022-08-14T20:01:37.042Z,66.59
2022-08-14T20:05:12.897Z,66.59
2022-08-14T20:11:01.430Z,67.11
2022-08-14T20:12:04.464Z,67.09
2022-08-14T20:15:15.499Z,66.60
2022-08-14T20:22:04.177Z,66.34
2022-08-14T20:25:21.887Z,66.54
2022-08-14T20:28:35.683Z,66.96
2022-08-14T20:31:40.212Z,67.27
2022-08-14T20:34:51.396Z,66.85
2022-08-14T20:38:29.037Z,66.55
2022-08-14T20:41:28.848Z,66.42
2022-08-14T20:44:51.427Z,66.95
2022-08-14T20:48:07.325Z,67.31
2022-08-14T20:51:21.072Z,66.72
2022-08-14T20:54:34.204Z,67.32
2022-08-14T20:57:44.122Z,67.56
2022-08-14T21:01:00.782Z,66.93
2022-08-14T21:04:26.698Z,66.27
2022-08-14T21:07:36.439Z,66.46
2022-08-14T21:10:47.255Z,66.32
2022-08-14T21:14:20.508Z,66.90
2022-08-14T21:17:22.527Z,66.75
2022-08-14T21:20:29.534Z,66.27
2022-08-14T21:23:36.722Z,66.13
2022-08-14T21:27:09.401Z,66.23
2022-08-14T21:30:20.876Z,65.79
2022-08-14T21:33:27.247Z,66.09
2022-08-14T21:36:36.478Z,66.33
2022-08-14T21:39:46.695Z,65.40
2022-08-14T21:43:01.236Z,65.74
2022-08-14T21:46:05.895Z,66.38
2022-08-14T21:49:12.748Z,66.72
2022-08-14T21:52:50.621Z,65.97
2022-08-14T21:55:47.019Z,65.25
2022-08-14T21:58:56.192Z,65.53
2022-08-14T22:02:03.953Z,65.91
2022-08-14T22:05:08.866Z,66.11
2022-08-14T22:08:18.109Z,66.00
2022-08-14T22:11:23.826Z,65.83
2022-08-14T22:14:29.547Z,65.43
2022-08-14T22:17:34.488Z,66.07
2022-08-14T22:20:39.695Z,65.71
2022-08-14T22:23:46.553Z,65.41
2022-08-14T22:26:52.266Z,64.58
2022-08-14T22:29:58.607Z,64.89
2022-08-14T22:33:06.200Z,65.05
2022-08-14T22:36:34.305Z,65.33
2022-08-14T22:40:43.197Z,65.60
2022-08-14T22:43:15.805Z,66.85
2022-08-14T22:46:20.846Z,67.91
2022-08-14T22:50:31.559Z,67.36
2022-08-14T22:52:50.781Z,68.31
2022-08-14T22:55:56.850Z,69.16
2022-08-14T22:59:04.605Z,70.04
2022-08-14T23:02:16.652Z,69.87
2022-08-14T23:05:38.974Z,70.48
2022-08-14T23:09:01.915Z,69.29
2022-08-14T23:12:28.233Z,68.96
2022-08-14T23:15:34.224Z,68.38
2022-08-14T23:18:39.645Z,68.31
2022-08-14T23:21:46.699Z,69.47
2022-08-14T23:25:11.462Z,68.47
2022-08-14T23:28:58.421Z,67.88
2022-08-14T23:32:03.544Z,68.87
2022-08-14T23:35:07.637Z,68.42
2022-08-14T23:38:29.908Z,67.74
2022-08-14T23:41:46.970Z,68.09
2022-08-14T23:44:58.685Z,67.61
2022-08-14T23:48:04.680Z,67.25
2022-08-14T23:51:17.012Z,66.74
2022-08-14T23:54:48.816Z,66.38
2022-08-14T23:57:57.669Z,66.26
